Terminal Aerodrome Forecast
Issued by NWS

Home | Current Version | Previous Version | Text Only | Print | Product List | Glossary On
Versions: 1 2 3 4 5 6 7 8 9 10 11 12 13 14 15 16 17 18 19 20 21 22
000
FTUS46 KSGX 302320
TAFCRQ
TAF
KCRQ 302320Z 3100/3124 26008KT P6SM BKN012 BKN020 BKN090
     FM310300 VRB05KT 6SM HZ OVC009
     FM311800 VRB05KT P6SM SCT015
     FM312100 20008KT P6SM SCT020=

USA.gov is the U.S. government's official web portal to all federal, state and local government web resources and services.